TAF LERT
METAR LERT
LERT 270800Z VRB02KT CAVOK 05/05 Q1014 NOSIG=
LERT 270730Z VRB01KT CAVOK 05/04 Q1014 NOSIG=
LERT 270700Z VRB02KT CAVOK 05/05 Q1013 NOSIG=
LERT 270630Z 33003KT 310V020 CAVOK 06/05 Q1013 NOSIG=
LERT 270600Z 32004KT 250V360 CAVOK 08/06 Q1013 NOSIG=
WC LERT
WS LERT
WV LERT